sensor_id;sensor_type;location;lat;lon;timestamp;P1;durP1;ratioP1;P2;durP2;ratioP2
48205;SDS011;33995;48.202;16.260;2023-05-10T00:02:20;4.27;;;3.83;;
48205;SDS011;33995;48.202;16.260;2023-05-10T00:04:48;4.60;;;3.87;;
48205;SDS011;33995;48.202;16.260;2023-05-10T00:07:15;4.20;;;3.80;;
48205;SDS011;33995;48.202;16.260;2023-05-10T00:09:43;4.23;;;3.80;;
48205;SDS011;33995;48.202;16.260;2023-05-10T00:12:10;3.80;;;3.50;;
48205;SDS011;33995;48.202;16.260;2023-05-10T00:14:37;4.13;;;3.50;;
48205;SDS011;33995;48.202;16.260;2023-05-10T00:17:04;4.23;;;3.93;;
48205;SDS011;33995;48.202;16.260;2023-05-10T00:19:32;4.13;;;3.70;;
48205;SDS011;33995;48.202;16.260;2023-05-10T00:21:59;4.33;;;3.83;;
48205;SDS011;33995;48.202;16.260;2023-05-10T00:24:29;4.30;;;3.90;;
48205;SDS011;33995;48.202;16.260;2023-05-10T00:26:56;4.10;;;3.80;;
48205;SDS011;33995;48.202;16.260;2023-05-10T00:29:26;4.30;;;4.00;;
48205;SDS011;33995;48.202;16.260;2023-05-10T00:31:54;4.57;;;4.13;;
48205;SDS011;33995;48.202;16.260;2023-05-10T00:34:21;4.43;;;4.03;;
48205;SDS011;33995;48.202;16.260;2023-05-10T00:36:49;5.27;;;3.87;;
48205;SDS011;33995;48.202;16.260;2023-05-10T00:39:18;4.17;;;3.77;;
48205;SDS011;33995;48.202;16.260;2023-05-10T00:41:45;3.90;;;3.60;;
48205;SDS011;33995;48.202;16.260;2023-05-10T00:44:12;8.83;;;4.10;;
48205;SDS011;33995;48.202;16.260;2023-05-10T00:46:39;4.00;;;3.70;;
48205;SDS011;33995;48.202;16.260;2023-05-10T00:49:08;3.90;;;3.60;;
48205;SDS011;33995;48.202;16.260;2023-05-10T00:51:35;4.53;;;4.13;;
48205;SDS011;33995;48.202;16.260;2023-05-10T00:54:04;4.03;;;3.60;;
48205;SDS011;33995;48.202;16.260;2023-05-10T00:56:34;4.20;;;3.80;;
48205;SDS011;33995;48.202;16.260;2023-05-10T00:59:01;4.63;;;3.70;;
48205;SDS011;33995;48.202;16.260;2023-05-10T01:01:28;4.03;;;3.70;;
48205;SDS011;33995;48.202;16.260;2023-05-10T01:03:56;5.50;;;3.80;;
48205;SDS011;33995;48.202;16.260;2023-05-10T01:06:25;4.03;;;3.63;;
48205;SDS011;33995;48.202;16.260;2023-05-10T01:08:52;5.20;;;3.80;;
48205;SDS011;33995;48.202;16.260;2023-05-10T01:11:20;4.57;;;3.77;;
48205;SDS011;33995;48.202;16.260;2023-05-10T01:13:50;4.87;;;4.17;;
48205;SDS011;33995;48.202;16.260;2023-05-10T01:16:23;4.30;;;3.90;;
48205;SDS011;33995;48.202;16.260;2023-05-10T01:18:53;4.90;;;3.70;;
48205;SDS011;33995;48.202;16.260;2023-05-10T01:21:29;3.93;;;3.63;;
48205;SDS011;33995;48.202;16.260;2023-05-10T01:24:23;4.10;;;3.70;;
48205;SDS011;33995;48.202;16.260;2023-05-10T01:27:20;5.30;;;3.90;;
48205;SDS011;33995;48.202;16.260;2023-05-10T01:30:05;4.13;;;3.60;;
48205;SDS011;33995;48.202;16.260;2023-05-10T01:35:34;4.30;;;3.90;;
48205;SDS011;33995;48.202;16.260;2023-05-10T01:39:11;4.93;;;3.60;;
48205;SDS011;33995;48.202;16.260;2023-05-10T01:43:57;4.10;;;3.70;;
48205;SDS011;33995;48.202;16.260;2023-05-10T01:46:48;4.10;;;3.70;;
48205;SDS011;33995;48.202;16.260;2023-05-10T01:49:26;4.17;;;3.80;;
48205;SDS011;33995;48.202;16.260;2023-05-10T01:52:00;4.20;;;3.50;;
48205;SDS011;33995;48.202;16.260;2023-05-10T01:54:34;3.90;;;3.60;;
48205;SDS011;33995;48.202;16.260;2023-05-10T01:57:05;5.43;;;3.70;;
48205;SDS011;33995;48.202;16.260;2023-05-10T01:59:37;4.70;;;4.13;;
48205;SDS011;33995;48.202;16.260;2023-05-10T02:02:26;5.10;;;3.80;;
48205;SDS011;33995;48.202;16.260;2023-05-10T02:04:55;4.43;;;4.03;;
48205;SDS011;33995;48.202;16.260;2023-05-10T02:07:26;4.70;;;3.90;;
48205;SDS011;33995;48.202;16.260;2023-05-10T02:09:56;4.43;;;3.80;;
48205;SDS011;33995;48.202;16.260;2023-05-10T02:12:23;5.13;;;4.07;;
48205;SDS011;33995;48.202;16.260;2023-05-10T02:14:51;5.33;;;3.80;;
48205;SDS011;33995;48.202;16.260;2023-05-10T02:17:20;4.13;;;3.80;;
48205;SDS011;33995;48.202;16.260;2023-05-10T02:19:49;4.73;;;3.83;;
48205;SDS011;33995;48.202;16.260;2023-05-10T02:22:18;5.17;;;3.73;;
48205;SDS011;33995;48.202;16.260;2023-05-10T02:24:49;4.13;;;3.80;;
48205;SDS011;33995;48.202;16.260;2023-05-10T02:27:17;4.20;;;3.80;;
48205;SDS011;33995;48.202;16.260;2023-05-10T02:29:46;4.30;;;3.83;;
48205;SDS011;33995;48.202;16.260;2023-05-10T02:32:15;4.57;;;4.17;;
48205;SDS011;33995;48.202;16.260;2023-05-10T02:34:48;4.30;;;3.90;;
48205;SDS011;33995;48.202;16.260;2023-05-10T02:37:20;4.17;;;3.83;;
48205;SDS011;33995;48.202;16.260;2023-05-10T02:39:50;4.43;;;4.03;;
48205;SDS011;33995;48.202;16.260;2023-05-10T02:42:22;4.70;;;4.20;;
48205;SDS011;33995;48.202;16.260;2023-05-10T02:44:53;4.60;;;4.20;;
48205;SDS011;33995;48.202;16.260;2023-05-10T02:47:26;5.67;;;4.30;;
48205;SDS011;33995;48.202;16.260;2023-05-10T02:49:53;4.20;;;3.80;;
48205;SDS011;33995;48.202;16.260;2023-05-10T02:52:28;4.73;;;4.30;;
48205;SDS011;33995;48.202;16.260;2023-05-10T02:55:04;4.40;;;4.00;;
48205;SDS011;33995;48.202;16.260;2023-05-10T02:57:33;4.50;;;4.10;;
48205;SDS011;33995;48.202;16.260;2023-05-10T03:00:02;4.57;;;4.17;;
48205;SDS011;33995;48.202;16.260;2023-05-10T03:02:29;4.70;;;4.30;;
48205;SDS011;33995;48.202;16.260;2023-05-10T03:04:59;4.87;;;4.47;;
48205;SDS011;33995;48.202;16.260;2023-05-10T03:07:26;4.47;;;3.90;;
48205;SDS011;33995;48.202;16.260;2023-05-10T03:09:54;4.87;;;4.37;;
48205;SDS011;33995;48.202;16.260;2023-05-10T03:18:18;5.03;;;4.20;;
48205;SDS011;33995;48.202;16.260;2023-05-10T03:20:51;5.20;;;4.70;;
48205;SDS011;33995;48.202;16.260;2023-05-10T03:23:31;5.13;;;4.53;;
48205;SDS011;33995;48.202;16.260;2023-05-10T03:26:09;6.07;;;4.37;;
48205;SDS011;33995;48.202;16.260;2023-05-10T03:28:45;4.73;;;4.33;;
48205;SDS011;33995;48.202;16.260;2023-05-10T03:31:16;5.03;;;4.43;;
48205;SDS011;33995;48.202;16.260;2023-05-10T03:33:50;4.83;;;4.33;;
48205;SDS011;33995;48.202;16.260;2023-05-10T03:36:25;4.73;;;3.93;;
48205;SDS011;33995;48.202;16.260;2023-05-10T03:38:53;4.87;;;4.47;;
48205;SDS011;33995;48.202;16.260;2023-05-10T03:41:21;4.53;;;4.13;;
48205;SDS011;33995;48.202;16.260;2023-05-10T03:43:48;4.53;;;3.93;;
48205;SDS011;33995;48.202;16.260;2023-05-10T03:46:18;4.33;;;3.93;;
48205;SDS011;33995;48.202;16.260;2023-05-10T03:48:45;4.60;;;4.20;;
48205;SDS011;33995;48.202;16.260;2023-05-10T03:51:12;4.57;;;4.17;;
48205;SDS011;33995;48.202;16.260;2023-05-10T03:53:39;5.20;;;4.60;;
48205;SDS011;33995;48.202;16.260;2023-05-10T03:56:09;4.80;;;4.33;;
48205;SDS011;33995;48.202;16.260;2023-05-10T03:58:36;5.23;;;4.73;;
48205;SDS011;33995;48.202;16.260;2023-05-10T04:01:05;5.03;;;4.53;;
48205;SDS011;33995;48.202;16.260;2023-05-10T04:03:33;6.50;;;5.90;;
48205;SDS011;33995;48.202;16.260;2023-05-10T04:06:04;5.83;;;5.30;;
48205;SDS011;33995;48.202;16.260;2023-05-10T04:08:32;6.10;;;5.50;;
48205;SDS011;33995;48.202;16.260;2023-05-10T04:11:10;6.67;;;6.07;;
48205;SDS011;33995;48.202;16.260;2023-05-10T04:13:38;7.20;;;5.47;;
48205;SDS011;33995;48.202;16.260;2023-05-10T04:16:06;5.70;;;5.10;;
48205;SDS011;33995;48.202;16.260;2023-05-10T04:18:35;7.60;;;5.47;;
48205;SDS011;33995;48.202;16.260;2023-05-10T04:21:02;5.40;;;4.90;;
48205;SDS011;33995;48.202;16.260;2023-05-10T04:23:29;5.40;;;4.90;;
48205;SDS011;33995;48.202;16.260;2023-05-10T04:26:00;5.37;;;4.87;;
48205;SDS011;33995;48.202;16.260;2023-05-10T04:28:28;5.83;;;5.20;;
48205;SDS011;33995;48.202;16.260;2023-05-10T04:31:02;5.20;;;4.70;;
48205;SDS011;33995;48.202;16.260;2023-05-10T04:33:34;5.40;;;4.90;;
48205;SDS011;33995;48.202;16.260;2023-05-10T04:36:02;5.73;;;5.23;;
48205;SDS011;33995;48.202;16.260;2023-05-10T04:38:33;6.63;;;5.40;;
48205;SDS011;33995;48.202;16.260;2023-05-10T04:41:04;5.47;;;4.87;;
48205;SDS011;33995;48.202;16.260;2023-05-10T04:43:35;5.93;;;4.77;;
48205;SDS011;33995;48.202;16.260;2023-05-10T04:46:02;6.40;;;5.47;;
48205;SDS011;33995;48.202;16.260;2023-05-10T04:48:30;5.10;;;4.70;;
48205;SDS011;33995;48.202;16.260;2023-05-10T04:50:57;6.80;;;4.80;;
48205;SDS011;33995;48.202;16.260;2023-05-10T04:53:24;5.53;;;5.03;;
48205;SDS011;33995;48.202;16.260;2023-05-10T04:55:52;6.00;;;4.87;;
48205;SDS011;33995;48.202;16.260;2023-05-10T04:58:19;5.87;;;5.27;;
48205;SDS011;33995;48.202;16.260;2023-05-10T05:00:47;6.50;;;5.20;;
48205;SDS011;33995;48.202;16.260;2023-05-10T05:03:14;6.57;;;5.20;;
48205;SDS011;33995;48.202;16.260;2023-05-10T05:05:43;5.93;;;5.20;;
48205;SDS011;33995;48.202;16.260;2023-05-10T05:08:11;6.73;;;5.10;;
48205;SDS011;33995;48.202;16.260;2023-05-10T05:10:38;7.67;;;5.10;;
48205;SDS011;33995;48.202;16.260;2023-05-10T05:13:06;5.30;;;4.80;;
48205;SDS011;33995;48.202;16.260;2023-05-10T05:15:33;5.37;;;4.87;;
48205;SDS011;33995;48.202;16.260;2023-05-10T05:18:00;6.77;;;5.03;;
48205;SDS011;33995;48.202;16.260;2023-05-10T05:20:27;6.17;;;5.40;;
48205;SDS011;33995;48.202;16.260;2023-05-10T05:22:56;5.77;;;5.20;;
48205;SDS011;33995;48.202;16.260;2023-05-10T05:25:22;5.27;;;4.77;;
48205;SDS011;33995;48.202;16.260;2023-05-10T05:27:49;5.73;;;4.57;;
48205;SDS011;33995;48.202;16.260;2023-05-10T05:30:16;5.30;;;4.80;;
48205;SDS011;33995;48.202;16.260;2023-05-10T05:32:44;5.40;;;4.87;;
48205;SDS011;33995;48.202;16.260;2023-05-10T05:35:11;5.50;;;5.00;;
48205;SDS011;33995;48.202;16.260;2023-05-10T05:37:39;5.60;;;5.10;;
48205;SDS011;33995;48.202;16.260;2023-05-10T05:40:07;5.83;;;5.23;;
48205;SDS011;33995;48.202;16.260;2023-05-10T05:42:40;5.43;;;4.93;;
48205;SDS011;33995;48.202;16.260;2023-05-10T05:45:08;6.50;;;5.40;;
48205;SDS011;33995;48.202;16.260;2023-05-10T05:47:40;5.63;;;5.13;;
48205;SDS011;33995;48.202;16.260;2023-05-10T05:50:10;9.03;;;5.60;;
48205;SDS011;33995;48.202;16.260;2023-05-10T05:52:41;8.57;;;5.50;;
48205;SDS011;33995;48.202;16.260;2023-05-10T05:55:08;6.17;;;5.50;;
48205;SDS011;33995;48.202;16.260;2023-05-10T05:57:35;7.40;;;5.60;;
48205;SDS011;33995;48.202;16.260;2023-05-10T06:00:02;6.23;;;5.33;;
48205;SDS011;33995;48.202;16.260;2023-05-10T06:02:37;6.30;;;5.70;;
48205;SDS011;33995;48.202;16.260;2023-05-10T06:05:06;6.17;;;5.07;;
48205;SDS011;33995;48.202;16.260;2023-05-10T06:07:36;5.73;;;5.20;;
48205;SDS011;33995;48.202;16.260;2023-05-10T06:10:03;6.33;;;5.30;;
48205;SDS011;33995;48.202;16.260;2023-05-10T06:12:32;6.60;;;5.07;;
48205;SDS011;33995;48.202;16.260;2023-05-10T06:14:59;5.70;;;5.10;;
48205;SDS011;33995;48.202;16.260;2023-05-10T06:17:28;5.30;;;4.80;;
48205;SDS011;33995;48.202;16.260;2023-05-10T06:19:55;6.87;;;5.00;;
48205;SDS011;33995;48.202;16.260;2023-05-10T06:22:25;7.30;;;4.80;;
48205;SDS011;33995;48.202;16.260;2023-05-10T06:24:53;4.50;;;4.10;;
48205;SDS011;33995;48.202;16.260;2023-05-10T06:27:20;5.57;;;4.50;;
48205;SDS011;33995;48.202;16.260;2023-05-10T06:29:50;5.43;;;4.17;;
48205;SDS011;33995;48.202;16.260;2023-05-10T06:32:31;5.30;;;4.43;;
48205;SDS011;33995;48.202;16.260;2023-05-10T06:35:00;4.60;;;4.20;;
48205;SDS011;33995;48.202;16.260;2023-05-10T06:37:27;4.50;;;4.10;;
48205;SDS011;33995;48.202;16.260;2023-05-10T06:39:55;5.33;;;4.33;;
48205;SDS011;33995;48.202;16.260;2023-05-10T06:42:23;4.43;;;4.10;;
48205;SDS011;33995;48.202;16.260;2023-05-10T06:44:51;4.57;;;4.00;;
48205;SDS011;33995;48.202;16.260;2023-05-10T06:47:19;5.27;;;4.30;;
48205;SDS011;33995;48.202;16.260;2023-05-10T06:49:46;4.43;;;4.03;;
48205;SDS011;33995;48.202;16.260;2023-05-10T06:52:13;4.70;;;4.30;;
48205;SDS011;33995;48.202;16.260;2023-05-10T06:54:40;5.33;;;4.20;;
48205;SDS011;33995;48.202;16.260;2023-05-10T06:57:09;4.40;;;4.00;;
48205;SDS011;33995;48.202;16.260;2023-05-10T06:59:57;4.97;;;3.97;;
48205;SDS011;33995;48.202;16.260;2023-05-10T07:02:25;4.47;;;4.07;;
48205;SDS011;33995;48.202;16.260;2023-05-10T07:04:54;7.17;;;4.50;;
48205;SDS011;33995;48.202;16.260;2023-05-10T07:07:21;5.23;;;4.30;;
48205;SDS011;33995;48.202;16.260;2023-05-10T07:09:49;5.40;;;4.30;;
48205;SDS011;33995;48.202;16.260;2023-05-10T07:12:19;7.50;;;4.40;;
48205;SDS011;33995;48.202;16.260;2023-05-10T07:14:46;5.00;;;4.50;;
48205;SDS011;33995;48.202;16.260;2023-05-10T07:17:14;5.60;;;4.40;;
48205;SDS011;33995;48.202;16.260;2023-05-10T07:19:42;5.20;;;4.13;;
48205;SDS011;33995;48.202;16.260;2023-05-10T07:22:09;6.40;;;4.27;;
48205;SDS011;33995;48.202;16.260;2023-05-10T07:24:36;4.20;;;3.80;;
48205;SDS011;33995;48.202;16.260;2023-05-10T07:27:03;5.00;;;3.80;;
48205;SDS011;33995;48.202;16.260;2023-05-10T07:29:32;6.03;;;3.83;;
48205;SDS011;33995;48.202;16.260;2023-05-10T07:31:59;4.10;;;3.70;;
48205;SDS011;33995;48.202;16.260;2023-05-10T07:34:27;4.33;;;3.87;;
48205;SDS011;33995;48.202;16.260;2023-05-10T07:36:58;4.83;;;3.70;;
48205;SDS011;33995;48.202;16.260;2023-05-10T07:39:26;4.10;;;3.70;;
48205;SDS011;33995;48.202;16.260;2023-05-10T07:41:55;6.60;;;4.10;;
48205;SDS011;33995;48.202;16.260;2023-05-10T07:44:22;4.13;;;3.50;;
48205;SDS011;33995;48.202;16.260;2023-05-10T07:46:50;5.17;;;4.10;;
48205;SDS011;33995;48.202;16.260;2023-05-10T07:49:18;5.07;;;4.20;;
48205;SDS011;33995;48.202;16.260;2023-05-10T07:51:48;4.60;;;4.20;;
48205;SDS011;33995;48.202;16.260;2023-05-10T07:54:16;5.47;;;4.47;;
48205;SDS011;33995;48.202;16.260;2023-05-10T07:56:44;5.10;;;4.20;;
48205;SDS011;33995;48.202;16.260;2023-05-10T07:59:17;4.80;;;3.53;;
48205;SDS011;33995;48.202;16.260;2023-05-10T08:01:44;6.27;;;4.40;;
48205;SDS011;33995;48.202;16.260;2023-05-10T08:04:12;4.97;;;4.20;;
48205;SDS011;33995;48.202;16.260;2023-05-10T08:06:39;5.00;;;4.50;;
48205;SDS011;33995;48.202;16.260;2023-05-10T08:09:08;4.60;;;4.20;;
48205;SDS011;33995;48.202;16.260;2023-05-10T08:11:35;5.50;;;4.30;;
48205;SDS011;33995;48.202;16.260;2023-05-10T08:14:04;4.90;;;4.37;;
48205;SDS011;33995;48.202;16.260;2023-05-10T08:16:32;5.37;;;4.50;;
48205;SDS011;33995;48.202;16.260;2023-05-10T08:19:00;4.57;;;4.17;;
48205;SDS011;33995;48.202;16.260;2023-05-10T08:21:28;5.27;;;4.57;;
48205;SDS011;33995;48.202;16.260;2023-05-10T08:23:56;4.50;;;4.10;;
48205;SDS011;33995;48.202;16.260;2023-05-10T08:26:25;5.63;;;4.63;;
48205;SDS011;33995;48.202;16.260;2023-05-10T08:28:53;4.80;;;4.40;;
48205;SDS011;33995;48.202;16.260;2023-05-10T08:31:20;4.23;;;3.87;;
48205;SDS011;33995;48.202;16.260;2023-05-10T08:33:47;7.53;;;4.20;;
48205;SDS011;33995;48.202;16.260;2023-05-10T08:36:14;4.53;;;4.10;;
48205;SDS011;33995;48.202;16.260;2023-05-10T08:38:47;4.93;;;4.10;;
48205;SDS011;33995;48.202;16.260;2023-05-10T08:41:19;5.23;;;4.10;;
48205;SDS011;33995;48.202;16.260;2023-05-10T08:43:47;6.13;;;3.87;;
48205;SDS011;33995;48.202;16.260;2023-05-10T08:46:15;4.67;;;3.90;;
48205;SDS011;33995;48.202;16.260;2023-05-10T08:48:44;4.20;;;3.80;;
48205;SDS011;33995;48.202;16.260;2023-05-10T08:51:13;7.80;;;4.17;;
48205;SDS011;33995;48.202;16.260;2023-05-10T08:53:44;5.00;;;4.40;;
48205;SDS011;33995;48.202;16.260;2023-05-10T08:56:15;4.70;;;4.30;;
48205;SDS011;33995;48.202;16.260;2023-05-10T08:58:47;5.43;;;4.30;;
48205;SDS011;33995;48.202;16.260;2023-05-10T09:01:16;4.27;;;3.90;;
48205;SDS011;33995;48.202;16.260;2023-05-10T09:03:45;4.47;;;4.07;;
48205;SDS011;33995;48.202;16.260;2023-05-10T09:06:14;4.17;;;3.70;;
48205;SDS011;33995;48.202;16.260;2023-05-10T09:08:42;4.73;;;3.47;;
48205;SDS011;33995;48.202;16.260;2023-05-10T09:11:12;5.73;;;3.97;;
48205;SDS011;33995;48.202;16.260;2023-05-10T09:13:39;4.07;;;3.67;;
48205;SDS011;33995;48.202;16.260;2023-05-10T09:16:09;4.70;;;3.83;;
48205;SDS011;33995;48.202;16.260;2023-05-10T09:18:47;5.33;;;3.60;;
48205;SDS011;33995;48.202;16.260;2023-05-10T09:21:16;5.00;;;4.07;;
48205;SDS011;33995;48.202;16.260;2023-05-10T09:23:43;5.10;;;3.87;;
48205;SDS011;33995;48.202;16.260;2023-05-10T09:26:14;3.80;;;3.50;;
48205;SDS011;33995;48.202;16.260;2023-05-10T09:31:19;6.93;;;3.50;;
48205;SDS011;33995;48.202;16.260;2023-05-10T09:33:47;4.90;;;3.13;;
48205;SDS011;33995;48.202;16.260;2023-05-10T09:36:16;5.70;;;3.40;;
48205;SDS011;33995;48.202;16.260;2023-05-10T09:38:51;3.33;;;3.00;;
48205;SDS011;33995;48.202;16.260;2023-05-10T09:41:20;3.03;;;2.80;;
48205;SDS011;33995;48.202;16.260;2023-05-10T09:43:50;3.43;;;2.93;;
48205;SDS011;33995;48.202;16.260;2023-05-10T09:46:24;3.07;;;2.77;;
48205;SDS011;33995;48.202;16.260;2023-05-10T09:48:52;3.63;;;2.80;;
48205;SDS011;33995;48.202;16.260;2023-05-10T09:51:24;3.50;;;2.43;;
48205;SDS011;33995;48.202;16.260;2023-05-10T09:54:08;3.47;;;2.40;;
48205;SDS011;33995;48.202;16.260;2023-05-10T09:56:39;2.93;;;2.17;;
48205;SDS011;33995;48.202;16.260;2023-05-10T09:59:10;4.00;;;2.50;;
48205;SDS011;33995;48.202;16.260;2023-05-10T10:01:38;2.30;;;2.10;;
48205;SDS011;33995;48.202;16.260;2023-05-10T10:04:06;3.17;;;2.23;;
48205;SDS011;33995;48.202;16.260;2023-05-10T10:06:37;2.80;;;1.80;;
48205;SDS011;33995;48.202;16.260;2023-05-10T10:09:06;1.80;;;1.70;;
48205;SDS011;33995;48.202;16.260;2023-05-10T10:11:34;3.03;;;1.97;;
48205;SDS011;33995;48.202;16.260;2023-05-10T10:14:02;3.37;;;2.13;;
48205;SDS011;33995;48.202;16.260;2023-05-10T10:16:33;2.53;;;1.90;;
48205;SDS011;33995;48.202;16.260;2023-05-10T10:19:01;2.00;;;1.90;;
48205;SDS011;33995;48.202;16.260;2023-05-10T10:21:29;2.00;;;1.90;;
48205;SDS011;33995;48.202;16.260;2023-05-10T10:23:57;2.20;;;2.00;;
48205;SDS011;33995;48.202;16.260;2023-05-10T10:26:24;2.30;;;2.10;;
48205;SDS011;33995;48.202;16.260;2023-05-10T10:29:09;2.10;;;1.90;;
48205;SDS011;33995;48.202;16.260;2023-05-10T10:34:59;1.97;;;1.77;;
48205;SDS011;33995;48.202;16.260;2023-05-10T10:37:45;1.93;;;1.83;;
48205;SDS011;33995;48.202;16.260;2023-05-10T10:40:25;3.20;;;1.80;;
48205;SDS011;33995;48.202;16.260;2023-05-10T10:42:55;1.83;;;1.73;;
48205;SDS011;33995;48.202;16.260;2023-05-10T10:45:24;3.03;;;1.80;;
48205;SDS011;33995;48.202;16.260;2023-05-10T10:50:56;1.90;;;1.73;;
48205;SDS011;33995;48.202;16.260;2023-05-10T10:53:27;2.13;;;1.80;;
48205;SDS011;33995;48.202;16.260;2023-05-10T10:56:08;3.27;;;2.10;;
48205;SDS011;33995;48.202;16.260;2023-05-10T10:58:40;2.97;;;1.80;;
48205;SDS011;33995;48.202;16.260;2023-05-10T11:01:10;2.47;;;1.80;;
48205;SDS011;33995;48.202;16.260;2023-05-10T11:03:38;2.50;;;1.90;;
48205;SDS011;33995;48.202;16.260;2023-05-10T11:06:05;2.27;;;2.07;;
48205;SDS011;33995;48.202;16.260;2023-05-10T11:08:34;2.13;;;2.00;;
48205;SDS011;33995;48.202;16.260;2023-05-10T11:11:14;4.33;;;1.90;;
48205;SDS011;33995;48.202;16.260;2023-05-10T11:16:51;2.40;;;1.90;;
48205;SDS011;33995;48.202;16.260;2023-05-10T11:19:19;2.33;;;1.97;;
48205;SDS011;33995;48.202;16.260;2023-05-10T11:21:50;2.13;;;1.93;;
48205;SDS011;33995;48.202;16.260;2023-05-10T11:24:39;2.70;;;2.50;;
48205;SDS011;33995;48.202;16.260;2023-05-10T11:27:25;3.93;;;2.47;;
48205;SDS011;33995;48.202;16.260;2023-05-10T11:29:56;2.40;;;2.20;;
48205;SDS011;33995;48.202;16.260;2023-05-10T11:32:23;3.77;;;2.00;;
48205;SDS011;33995;48.202;16.260;2023-05-10T11:34:52;2.50;;;2.30;;
48205;SDS011;33995;48.202;16.260;2023-05-10T11:37:19;2.27;;;2.00;;
48205;SDS011;33995;48.202;16.260;2023-05-10T11:39:46;2.23;;;2.00;;
48205;SDS011;33995;48.202;16.260;2023-05-10T11:42:14;2.13;;;1.93;;
48205;SDS011;33995;48.202;16.260;2023-05-10T11:44:44;1.90;;;1.80;;
48205;SDS011;33995;48.202;16.260;2023-05-10T11:47:14;2.00;;;1.90;;
48205;SDS011;33995;48.202;16.260;2023-05-10T11:49:45;3.17;;;1.90;;
48205;SDS011;33995;48.202;16.260;2023-05-10T11:52:13;2.37;;;1.90;;
48205;SDS011;33995;48.202;16.260;2023-05-10T11:54:54;3.53;;;1.63;;
48205;SDS011;33995;48.202;16.260;2023-05-10T11:57:25;1.80;;;1.70;;
48205;SDS011;33995;48.202;16.260;2023-05-10T11:59:56;2.30;;;2.10;;
48205;SDS011;33995;48.202;16.260;2023-05-10T12:02:23;3.63;;;1.90;;
48205;SDS011;33995;48.202;16.260;2023-05-10T12:04:52;2.13;;;1.93;;
48205;SDS011;33995;48.202;16.260;2023-05-10T12:07:22;2.80;;;1.97;;
48205;SDS011;33995;48.202;16.260;2023-05-10T12:12:42;2.43;;;1.73;;
48205;SDS011;33995;48.202;16.260;2023-05-10T12:15:28;2.67;;;1.80;;
48205;SDS011;33995;48.202;16.260;2023-05-10T12:17:55;2.10;;;1.90;;
48205;SDS011;33995;48.202;16.260;2023-05-10T12:20:27;1.70;;;1.60;;
48205;SDS011;33995;48.202;16.260;2023-05-10T12:22:55;3.07;;;2.00;;
48205;SDS011;33995;48.202;16.260;2023-05-10T12:25:29;1.90;;;1.80;;
48205;SDS011;33995;48.202;16.260;2023-05-10T12:27:58;2.07;;;1.87;;
48205;SDS011;33995;48.202;16.260;2023-05-10T12:30:28;1.90;;;1.80;;
48205;SDS011;33995;48.202;16.260;2023-05-10T12:33:07;2.10;;;1.90;;
48205;SDS011;33995;48.202;16.260;2023-05-10T12:35:48;2.10;;;1.90;;
48205;SDS011;33995;48.202;16.260;2023-05-10T12:41:02;2.10;;;2.00;;
48205;SDS011;33995;48.202;16.260;2023-05-10T12:43:34;3.17;;;1.97;;
48205;SDS011;33995;48.202;16.260;2023-05-10T12:48:51;3.13;;;1.87;;
48205;SDS011;33995;48.202;16.260;2023-05-10T12:51:34;3.00;;;1.93;;
48205;SDS011;33995;48.202;16.260;2023-05-10T12:54:02;1.73;;;1.63;;
48205;SDS011;33995;48.202;16.260;2023-05-10T12:56:30;1.97;;;1.87;;
48205;SDS011;33995;48.202;16.260;2023-05-10T12:58:56;3.63;;;1.90;;
48205;SDS011;33995;48.202;16.260;2023-05-10T13:01:23;3.67;;;2.20;;
48205;SDS011;33995;48.202;16.260;2023-05-10T13:03:51;3.40;;;1.83;;
48205;SDS011;33995;48.202;16.260;2023-05-10T13:06:19;2.13;;;2.00;;
48205;SDS011;33995;48.202;16.260;2023-05-10T13:08:46;2.03;;;1.93;;
48205;SDS011;33995;48.202;16.260;2023-05-10T13:11:13;2.03;;;1.80;;
48205;SDS011;33995;48.202;16.260;2023-05-10T13:13:42;2.43;;;1.90;;
48205;SDS011;33995;48.202;16.260;2023-05-10T13:16:11;2.80;;;2.00;;
48205;SDS011;33995;48.202;16.260;2023-05-10T13:18:38;2.20;;;2.00;;
48205;SDS011;33995;48.202;16.260;2023-05-10T13:21:09;2.57;;;2.37;;
48205;SDS011;33995;48.202;16.260;2023-05-10T13:23:39;2.40;;;2.20;;
48205;SDS011;33995;48.202;16.260;2023-05-10T13:26:08;2.50;;;2.10;;
48205;SDS011;33995;48.202;16.260;2023-05-10T13:28:35;2.90;;;2.23;;
48205;SDS011;33995;48.202;16.260;2023-05-10T13:31:03;2.60;;;2.40;;
48205;SDS011;33995;48.202;16.260;2023-05-10T13:33:30;2.83;;;2.53;;
48205;SDS011;33995;48.202;16.260;2023-05-10T13:35:59;4.53;;;2.40;;
48205;SDS011;33995;48.202;16.260;2023-05-10T13:38:27;2.47;;;2.27;;
48205;SDS011;33995;48.202;16.260;2023-05-10T13:40:54;2.40;;;2.20;;
48205;SDS011;33995;48.202;16.260;2023-05-10T13:43:24;2.73;;;2.50;;
48205;SDS011;33995;48.202;16.260;2023-05-10T13:45:51;2.40;;;2.20;;
48205;SDS011;33995;48.202;16.260;2023-05-10T13:48:18;3.50;;;2.20;;
48205;SDS011;33995;48.202;16.260;2023-05-10T13:50:45;2.87;;;2.23;;
48205;SDS011;33995;48.202;16.260;2023-05-10T13:53:14;3.93;;;2.30;;
48205;SDS011;33995;48.202;16.260;2023-05-10T13:55:42;2.20;;;2.00;;
48205;SDS011;33995;48.202;16.260;2023-05-10T13:58:09;2.80;;;2.50;;
48205;SDS011;33995;48.202;16.260;2023-05-10T14:00:36;2.60;;;2.40;;
48205;SDS011;33995;48.202;16.260;2023-05-10T14:03:03;4.80;;;2.20;;
48205;SDS011;33995;48.202;16.260;2023-05-10T14:05:33;2.80;;;2.40;;
48205;SDS011;33995;48.202;16.260;2023-05-10T14:08:00;3.47;;;2.47;;
48205;SDS011;33995;48.202;16.260;2023-05-10T14:10:29;2.30;;;2.10;;
48205;SDS011;33995;48.202;16.260;2023-05-10T14:12:59;2.50;;;2.30;;
48205;SDS011;33995;48.202;16.260;2023-05-10T14:15:28;2.50;;;2.30;;
48205;SDS011;33995;48.202;16.260;2023-05-10T14:17:55;2.40;;;2.20;;
48205;SDS011;33995;48.202;16.260;2023-05-10T14:20:24;2.37;;;2.17;;
48205;SDS011;33995;48.202;16.260;2023-05-10T14:22:51;2.60;;;2.40;;
48205;SDS011;33995;48.202;16.260;2023-05-10T14:25:18;2.67;;;2.37;;
48205;SDS011;33995;48.202;16.260;2023-05-10T14:27:47;3.93;;;2.50;;
48205;SDS011;33995;48.202;16.260;2023-05-10T14:30:14;2.67;;;2.30;;
48205;SDS011;33995;48.202;16.260;2023-05-10T14:32:43;3.13;;;2.17;;
48205;SDS011;33995;48.202;16.260;2023-05-10T14:35:10;3.20;;;2.40;;
48205;SDS011;33995;48.202;16.260;2023-05-10T14:37:38;3.07;;;2.20;;
48205;SDS011;33995;48.202;16.260;2023-05-10T14:40:09;3.00;;;2.20;;
48205;SDS011;33995;48.202;16.260;2023-05-10T14:42:36;2.47;;;2.27;;
48205;SDS011;33995;48.202;16.260;2023-05-10T14:45:04;2.10;;;2.00;;
48205;SDS011;33995;48.202;16.260;2023-05-10T14:47:31;2.03;;;1.93;;
48205;SDS011;33995;48.202;16.260;2023-05-10T14:50:00;2.30;;;2.10;;
48205;SDS011;33995;48.202;16.260;2023-05-10T14:52:28;3.27;;;2.10;;
48205;SDS011;33995;48.202;16.260;2023-05-10T14:55:00;2.10;;;2.00;;
48205;SDS011;33995;48.202;16.260;2023-05-10T14:57:28;1.93;;;1.83;;
48205;SDS011;33995;48.202;16.260;2023-05-10T14:59:56;2.43;;;2.20;;
48205;SDS011;33995;48.202;16.260;2023-05-10T15:02:23;2.07;;;1.97;;
48205;SDS011;33995;48.202;16.260;2023-05-10T15:04:52;2.10;;;1.90;;
48205;SDS011;33995;48.202;16.260;2023-05-10T15:07:20;2.13;;;2.03;;
48205;SDS011;33995;48.202;16.260;2023-05-10T15:09:48;2.60;;;2.40;;
48205;SDS011;33995;48.202;16.260;2023-05-10T15:12:15;3.53;;;2.20;;
48205;SDS011;33995;48.202;16.260;2023-05-10T15:14:45;4.07;;;2.20;;
48205;SDS011;33995;48.202;16.260;2023-05-10T15:17:13;2.80;;;2.30;;
48205;SDS011;33995;48.202;16.260;2023-05-10T15:19:42;2.53;;;2.30;;
48205;SDS011;33995;48.202;16.260;2023-05-10T15:22:09;2.10;;;2.00;;